Terminal Aerodrome Forecast
Issued by NWS Jackson, MS

Home | Current Version | Previous Version | Text Only | Print | Product List | Glossary On
Versions: 1 2 3 4 5 6 7 8 9 10 11 12 13 14 15
634
FTUS44 KJAN 282320
TAFGWO
TAF
KGWO 282320Z 2900/2924 20011KT P6SM SKC
     FM291000 VRB03KT 6SM BR SKC
     FM291400 25006KT P6SM SCT250=

USA.gov is the U.S. government's official web portal to all federal, state and local government web resources and services.